Hlavní strana
METAR-TAF:

METAR-TAF

Letiště :

Aarhus, Dánsko

zeměpisná šířka: 56-18N, zeměpisná délka: 010-37E, výška: 23 m

Aktuální stav počasí

Zpráva byla vytvořena před 9 minutami, v 07:20 UTC
Západoseverozápadní vítr 14 kt
Teplota 10°C
Vlhkost vzduchu 71%
Tlak 1019 hPa
Viditelnost 10 km a více

METAR: EKAH 240720Z AUTO 30014KT 9999NDV NCD 10/05 Q1019

Čas: 09:29 (07:29 UTC)

Předpověď počasí

Zpráva byla vytvořena před 2 hodinami a 27 minutami, v 05:02 UTC
Předpověď platná od 24 v 06 UTC do 25 v 06 UTC
Západoseverozápadní vítr 15 kt
Viditelnost 10 km a více
Polojasno ve výšce 3000 ft
Dočasný
od 24 v 08 UTC do 24 v 15 UTC
Severozápadní vítr 18 kt s nárazy do 28 kt
Změna
od 24 v 15 UTC do 24 v 18 UTC
Západoseverozápadní vítr 8 kt

TAF: EKAH 240502Z 2406/2506 30015KT 9999 SCT030 TEMPO 2408/2415 31018G28KT BECMG 2415/2418 29008KT

Stav a předpovědi počasí z více než 4 000 letišť (zprávy METAR a TAF).

Červené a žluté tečky na mapě představují dostupné meteorologické stanice.

Když kurzor umístíte na tečku, zobrazí se název stanice.

Pak kliknutím zobrazíte stav a předpověď počasí.

Chcete-li změnit mapu, kliknutím na zelené tlačítko se znaménkem +mapu přiblížíte, kliknutím na zelené tlačítko se znaménkem – mapu oddálíte a kliknutím na zelené šipky přejdete na sousední mapy.


METAR-TAF: